Time;durP1;ratioP1;P1;durP2;ratioP2;P2;SDS_P1;SDS_P2;PMS_P1;PMS_P2;Temp;Humidity;BMP_temperature;BMP_pressure;BME280_temperature;BME280_humidity;BME280_pressure;Samples;Min_cycle;Max_cycle;Signal;HPM_P1;HPM_P2
2023/09/16 00:01:40;;;;;;;75.87;70.92;;;;;;;10.49;68.95;101169.06;1761421;81;27443;-47
2023/09/16 00:04:08;;;;;;;77.58;72.30;;;;;;;10.47;69.02;101170.70;1761345;81;25843;-47
2023/09/16 00:06:34;;;;;;;78.67;73.47;;;;;;;10.44;69.11;101172.66;1761422;81;25570;-47
2023/09/16 00:09:01;;;;;;;76.28;71.17;;;;;;;10.41;69.04;101175.37;1761239;81;25514;-47
2023/09/16 00:11:27;;;;;;;79.55;74.05;;;;;;;10.38;68.92;101174.58;1761382;81;25144;-48
2023/09/16 00:13:54;;;;;;;76.87;71.72;;;;;;;10.36;69.15;101171.92;1761332;81;27476;-48
2023/09/16 00:16:21;;;;;;;76.80;71.80;;;;;;;10.33;69.23;101173.28;1761167;81;25555;-48
2023/09/16 00:18:47;;;;;;;74.85;69.97;;;;;;;10.29;69.16;101166.81;1761317;81;25584;-47
2023/09/16 00:21:14;;;;;;;75.83;70.75;;;;;;;10.26;69.37;101167.38;1761255;81;25488;-47
2023/09/16 00:23:42;;;;;;;76.53;71.45;;;;;;;10.24;69.19;101162.25;1761320;81;25402;-49
2023/09/16 00:26:10;;;;;;;76.30;71.20;;;;;;;10.21;69.28;101162.02;1761232;81;27568;-47
2023/09/16 00:28:36;;;;;;;76.45;71.37;;;;;;;10.17;69.25;101163.14;1761148;81;25473;-48
2023/09/16 00:31:06;;;;;;;78.95;73.80;;;;;;;10.14;69.30;101160.20;1781542;79;25419;-46
2023/09/16 00:33:32;;;;;;;76.02;71.02;;;;;;;10.10;69.53;101159.41;1791314;80;25600;-47
2023/09/16 00:35:59;;;;;;;77.10;72.00;;;;;;;10.06;69.34;101155.67;1791372;80;25400;-48
2023/09/16 00:38:25;;;;;;;77.40;72.20;;;;;;;10.04;69.71;101159.73;1791327;80;27522;-46
2023/09/16 00:40:52;;;;;;;76.72;71.65;;;;;;;9.99;69.59;101160.58;1791288;80;25743;-46
2023/09/16 00:43:18;;;;;;;77.65;72.50;;;;;;;9.96;69.73;101163.05;1791291;80;25372;-48
2023/09/16 00:45:45;;;;;;;76.00;70.95;;;;;;;9.94;69.93;101157.92;1791327;80;25582;-46
2023/09/16 00:48:15;;;;;;;78.70;73.30;;;;;;;9.92;70.31;101165.52;1791382;80;25386;-47
2023/09/16 00:50:43;;;;;;;77.78;72.42;;;;;;;9.89;70.17;101165.55;1791352;80;27488;-47
2023/09/16 00:53:12;;;;;;;76.53;71.22;;;;;;;9.89;70.65;101167.42;1791246;80;25539;-46
2023/09/16 00:55:40;;;;;;;77.75;72.40;;;;;;;9.87;70.54;101161.50;1791338;80;25448;-48
2023/09/16 00:58:11;;;;;;;77.55;72.35;;;;;;;9.84;70.62;101165.59;1791235;80;25512;-46
2023/09/16 01:00:39;;;;;;;77.20;72.10;;;;;;;9.83;70.74;101166.66;1791494;80;25547;-50
2023/09/16 01:03:07;;;;;;;78.87;73.67;;;;;;;9.82;70.65;101163.69;1791336;80;27440;-47
2023/09/16 01:05:35;;;;;;;77.50;72.35;;;;;;;9.81;70.88;101159.39;1791256;80;25831;-47
2023/09/16 01:08:04;;;;;;;78.25;73.05;;;;;;;9.78;70.90;101165.36;1791333;80;25547;-47
2023/09/16 01:10:32;;;;;;;76.82;71.77;;;;;;;9.78;70.96;101164.55;1791429;80;25620;-48
2023/09/16 01:12:59;;;;;;;78.50;73.00;;;;;;;9.76;71.19;101160.78;1791368;80;25398;-47
2023/09/16 01:15:31;;;;;;;77.17;71.90;;;;;;;9.74;71.25;101165.67;1791428;80;27475;-49
2023/09/16 01:18:22;;;;;;;78.22;73.10;;;;;;;9.72;71.34;101160.55;1791293;80;25526;-47
2023/09/16 01:20:50;;;;;;;77.40;72.12;;;;;;;9.73;71.68;101157.29;1790398;79;25376;-48
2023/09/16 01:23:19;;;;;;;77.30;72.00;;;;;;;9.73;71.90;101158.64;1791285;80;25474;-48
2023/09/16 01:25:45;;;;;;;;;;;;;;;9.71;71.94;101162.17;1794025;80;25595;-48
2023/09/16 01:28:12;;;;;;;76.30;71.25;;;;;;;9.73;72.16;101165.39;1791324;79;27474;-48
2023/09/16 01:30:44;;;;;;;78.25;72.87;;;;;;;9.70;72.10;101161.38;1791093;79;25586;-49
2023/09/16 01:33:28;;;;;;;77.87;72.70;;;;;;;9.70;72.21;101162.73;1790262;79;25605;-47
2023/09/16 01:36:11;;;;;;;78.78;73.22;;;;;;;9.72;72.43;101165.95;1789417;79;25704;-48
2023/09/16 01:38:40;;;;;;;76.80;71.45;;;;;;;9.70;72.43;101159.20;1791473;80;25558;-50
2023/09/16 01:41:10;;;;;;;79.40;73.70;;;;;;;9.71;72.65;101161.63;1791394;80;27471;-51
2023/09/16 01:43:38;;;;;;;77.00;71.90;;;;;;;9.70;72.53;101159.20;1791357;80;25424;-45
2023/09/16 01:46:04;;;;;;;79.50;74.20;;;;;;;9.69;72.34;101163.00;1791312;80;25394;-49
2023/09/16 01:48:30;;;;;;;76.75;71.55;;;;;;;9.68;72.60;101162.17;1791236;80;25566;-49
2023/09/16 01:50:57;;;;;;;76.82;71.45;;;;;;;9.67;72.71;101155.18;1771741;80;25679;-48
2023/09/16 01:53:23;;;;;;;76.90;71.60;;;;;;;9.68;72.69;101154.08;1791326;80;27446;-48
2023/09/16 01:55:50;;;;;;;79.77;74.12;;;;;;;9.67;72.64;101154.35;1791219;80;25674;-50
2023/09/16 01:58:16;;;;;;;77.15;71.87;;;;;;;9.67;73.08;101155.18;1791314;80;25381;-46
2023/09/16 02:00:43;;;;;;;77.03;71.62;;;;;;;9.69;73.22;101158.95;1791322;80;27714;-47
2023/09/16 02:03:10;;;;;;;77.60;72.30;;;;;;;9.68;73.31;101151.92;1791401;80;25602;-48
2023/09/16 02:05:37;;;;;;;31.52;29.10;;;;;;;9.69;73.63;101152.20;1791316;80;27407;-48
2023/09/16 02:08:04;;;;;;;7.03;4.25;;;;;;;9.73;73.46;101158.64;1791193;80;25747;-47
2023/09/16 02:10:31;;;;;;;9.33;4.20;;;;;;;9.74;73.40;101158.91;1791257;80;25460;-50
2023/09/16 02:12:57;;;;;;;9.88;5.03;;;;;;;9.75;73.47;101163.21;1791228;80;25576;-46
2023/09/16 02:15:23;;;;;;;9.05;5.05;;;;;;;9.73;73.18;101164.05;1791388;80;25355;-47
2023/09/16 02:17:50;;;;;;;9.00;5.00;;;;;;;9.72;73.52;101159.72;1791247;80;27536;-46
2023/09/16 02:20:16;;;;;;;6.85;4.83;;;;;;;9.71;73.38;101152.72;1791205;79;25586;-47
2023/09/16 02:22:44;;;;;;;9.10;5.03;;;;;;;9.73;74.38;101160.78;1791296;80;25396;-47
2023/09/16 02:25:11;;;;;;;9.33;4.50;;;;;;;9.78;74.62;101153.75;1791240;80;25471;-48
2023/09/16 02:27:37;;;;;;;78.95;73.45;;;;;;;9.80;74.80;101154.27;1791320;79;25393;-47
2023/09/16 02:30:07;;;;;;;80.67;75.28;;;;;;;9.82;75.22;101150.18;1791202;79;27434;-47
2023/09/16 02:32:33;;;;;;;79.42;73.67;;;;;;;9.85;75.21;101150.97;1791410;80;25399;-46
2023/09/16 02:34:59;;;;;;;80.85;75.45;;;;;;;9.89;75.25;101148.51;1791291;80;25543;-47
2023/09/16 02:37:25;;;;;;;79.27;73.95;;;;;;;9.94;75.71;101151.16;1791253;80;25566;-47
2023/09/16 02:39:51;;;;;;;78.12;72.85;;;;;;;9.97;75.45;101150.60;1791371;80;25385;-46
2023/09/16 02:42:18;;;;;;;78.00;72.70;;;;;;;9.99;75.24;101157.88;1791227;80;27591;-47
2023/09/16 02:44:44;;;;;;;78.28;72.87;;;;;;;10.01;75.15;101154.37;1791182;80;25612;-46
2023/09/16 02:47:10;;;;;;;77.53;72.25;;;;;;;10.02;75.29;101151.91;1791268;80;25457;-48
2023/09/16 02:49:37;;;;;;;75.87;70.78;;;;;;;10.04;75.19;101150.28;1791229;80;26192;-50
2023/09/16 02:52:04;;;;;;;77.80;72.67;;;;;;;10.04;75.08;101153.78;1791240;80;25554;-47
2023/09/16 02:54:30;;;;;;;81.42;75.85;;;;;;;10.04;74.73;101155.13;1791272;80;27484;-51
2023/09/16 02:56:56;;;;;;;79.03;73.22;;;;;;;10.04;74.63;101155.69;1791155;80;25445;-47
2023/09/16 02:59:22;;;;;;;78.60;73.30;;;;;;;10.04;74.63;101157.03;1791252;80;25413;-50
2023/09/16 03:01:48;;;;;;;81.97;76.53;;;;;;;10.03;74.83;101158.94;1791208;80;25579;-47
2023/09/16 03:04:15;;;;;;;78.37;73.00;;;;;;;10.03;74.94;101158.94;1791212;80;25363;-47
2023/09/16 03:06:41;;;;;;;78.35;73.07;;;;;;;10.03;74.85;101163.00;1791265;80;27493;-46
2023/09/16 03:09:07;;;;;;;79.07;73.57;;;;;;;10.01;74.54;101162.48;1791152;80;25538;-47
2023/09/16 03:11:38;;;;;;;79.45;74.15;;;;;;;10.01;74.61;101164.36;1791267;80;25429;-50
2023/09/16 03:14:04;;;;;;;79.05;73.85;;;;;;;9.99;74.69;101157.08;1791230;80;26175;-48
2023/09/16 03:16:31;;;;;;;76.72;71.10;;;;;;;9.98;74.57;101173.84;1791245;80;25542;-47
2023/09/16 03:18:58;;;;;;;78.97;73.47;;;;;;;9.96;74.58;101166.58;1791217;80;27408;-48
2023/09/16 03:21:26;;;;;;;77.45;72.32;;;;;;;9.95;74.79;101160.89;1791157;80;25761;-46
2023/09/16 03:23:52;;;;;;;78.00;72.58;;;;;;;9.95;75.18;101157.39;1791240;80;25393;-47
2023/09/16 03:26:18;;;;;;;78.10;72.80;;;;;;;9.93;75.18;101159.03;1791199;80;26102;-46
2023/09/16 03:28:47;;;;;;;78.22;72.85;;;;;;;9.93;75.01;101163.08;1791312;80;25535;-46
2023/09/16 03:31:15;;;;;;;79.22;73.62;;;;;;;9.92;74.96;101162.81;1791263;80;28128;-47
2023/09/16 03:33:42;;;;;;;77.58;72.47;;;;;;;9.92;75.05;101162.81;1791142;80;25576;-47
2023/09/16 03:36:09;;;;;;;77.27;71.97;;;;;;;9.90;75.12;101160.94;1791235;80;25518;-47
2023/09/16 03:38:45;;;;;;;76.15;71.12;;;;;;;9.89;75.16;101163.37;1791217;80;25621;-47
2023/09/16 03:41:12;;;;;;;77.53;72.40;;;;;;;9.88;75.32;101169.33;1791285;80;25587;-47
2023/09/16 03:43:39;;;;;;;76.87;71.57;;;;;;;9.89;75.53;101162.02;1791245;80;27452;-47
2023/09/16 03:46:06;;;;;;;77.53;72.17;;;;;;;9.89;75.77;101169.60;1791147;80;25390;-46
2023/09/16 03:48:32;;;;;;;77.25;72.15;;;;;;;9.87;75.47;101167.70;1791192;80;25413;-47
2023/09/16 03:50:59;;;;;;;76.17;71.17;;;;;;;9.87;75.28;101169.61;1791171;80;25570;-47
2023/09/16 03:53:26;;;;;;;77.87;72.47;;;;;;;9.86;75.51;101166.66;1791352;80;25464;-47
2023/09/16 03:55:53;;;;;;;78.50;73.10;;;;;;;9.86;75.91;101166.66;1791167;80;29616;-47
2023/09/16 03:58:19;;;;;;;77.30;72.12;;;;;;;9.85;75.89;101172.59;1791160;80;25369;-47
2023/09/16 04:00:47;;;;;;;76.50;71.30;;;;;;;9.84;75.61;101170.16;1791217;80;25598;-47
2023/09/16 04:03:14;;;;;;;77.40;72.08;;;;;;;9.83;75.92;101175.33;1791405;79;25485;-47
2023/09/16 04:05:41;;;;;;;79.07;73.67;;;;;;;9.83;76.00;101173.97;1791214;80;25523;-47
2023/09/16 04:08:08;;;;;;;76.55;71.40;;;;;;;9.84;75.99;101171.52;1791234;80;27467;-46
2023/09/16 04:10:35;;;;;;;74.95;69.95;;;;;;;9.83;76.18;101177.47;1791234;80;25396;-46
2023/09/16 04:13:01;;;;;;;77.15;72.05;;;;;;;9.84;76.08;101174.22;1791387;80;25384;-46
2023/09/16 04:15:28;;;;;;;76.85;71.65;;;;;;;9.82;76.39;101174.50;1791364;80;25435;-46
2023/09/16 04:17:54;;;;;;;75.80;70.85;;;;;;;9.82;76.28;101175.05;1791330;80;25516;-46
2023/09/16 04:20:20;;;;;;;77.97;72.75;;;;;;;9.82;76.04;101179.11;1791417;80;27376;-46
2023/09/16 04:22:46;;;;;;;78.07;72.82;;;;;;;9.82;76.13;101174.50;1791510;80;25678;-46
2023/09/16 04:25:14;;;;;;;76.90;71.55;;;;;;;9.82;76.32;101171.00;1791653;80;25123;-47
2023/09/16 04:27:40;;;;;;;76.40;71.35;;;;;;;9.81;76.69;101176.95;1791581;80;25564;-47
2023/09/16 04:30:09;;;;;;;77.30;71.97;;;;;;;9.82;76.96;101172.34;1791368;80;25401;-50
2023/09/16 04:32:35;;;;;;;77.12;71.82;;;;;;;9.81;77.03;101168.05;1791332;80;28039;-50
2023/09/16 04:35:01;;;;;;;79.10;73.67;;;;;;;9.82;77.36;101165.59;1791247;80;25589;-46
2023/09/16 04:37:27;;;;;;;80.32;74.92;;;;;;;9.83;77.47;101172.63;1791402;80;25349;-49
2023/09/16 04:39:54;;;;;;;77.60;72.40;;;;;;;9.82;77.48;101171.00;1791346;80;25535;-49
2023/09/16 04:42:20;;;;;;;76.33;71.33;;;;;;;9.84;77.68;101175.57;1791378;80;25400;-49
2023/09/16 04:44:48;;;;;;;77.80;72.45;;;;;;;9.86;77.86;101176.12;1791368;80;28116;-47
2023/09/16 04:47:15;;;;;;;78.28;72.78;;;;;;;9.88;78.02;101175.28;1791282;80;25780;-49
2023/09/16 04:49:41;;;;;;;76.97;71.87;;;;;;;9.89;77.99;101182.28;1791433;80;25609;-49
2023/09/16 04:52:08;;;;;;;80.12;74.67;;;;;;;9.91;78.13;101177.43;1791403;80;25356;-48
2023/09/16 04:54:35;;;;;;;77.78;72.60;;;;;;;9.94;78.12;101178.74;1791347;80;25504;-49
2023/09/16 04:57:04;;;;;;;76.10;71.10;;;;;;;9.96;78.25;101177.39;1771606;80;28403;-48
2023/09/16 04:59:33;;;;;;;76.37;71.30;;;;;;;9.99;78.36;101174.65;1791521;80;25369;-49
2023/09/16 05:02:00;;;;;;;79.03;73.70;;;;;;;10.02;78.52;101180.29;1791484;80;25545;-47
2023/09/16 05:04:27;;;;;;;80.28;75.17;;;;;;;10.04;78.84;101174.05;1791323;80;25431;-47
2023/09/16 05:06:53;;;;;;;76.40;71.28;;;;;;;10.10;78.90;101185.64;1791378;80;25605;-48
2023/09/16 05:09:23;;;;;;;79.32;73.57;;;;;;;10.13;78.97;101176.15;1791287;80;29751;-49
2023/09/16 05:11:49;;;;;;;78.50;72.87;;;;;;;10.18;79.34;101180.98;1791350;80;25693;-48
2023/09/16 05:14:16;;;;;;;78.97;73.72;;;;;;;10.25;79.69;101180.66;1791343;80;25594;-47
2023/09/16 05:16:43;;;;;;;78.15;72.82;;;;;;;10.32;79.78;101181.15;1791373;80;25634;-47
2023/09/16 05:19:10;;;;;;;81.50;75.52;;;;;;;10.39;79.95;101184.88;1791356;80;25645;-48
2023/09/16 05:21:37;;;;;;;79.58;74.15;;;;;;;10.46;80.01;101186.13;1791348;80;27414;-47
2023/09/16 05:24:06;;;;;;;84.05;78.57;;;;;;;10.55;80.05;101182.81;1791172;80;25570;-47
2023/09/16 05:26:32;;;;;;;76.97;71.60;;;;;;;10.64;80.54;101186.48;1791467;80;25590;-48
2023/09/16 05:28:59;;;;;;;77.87;72.87;;;;;;;10.76;80.47;101188.79;1791252;80;25530;-48
2023/09/16 05:31:28;;;;;;;78.60;73.28;;;;;;;10.86;80.71;101188.67;1791315;78;25657;-46
2023/09/16 05:33:54;;;;;;;79.35;73.95;;;;;;;10.95;80.48;101184.80;1791451;80;27541;-47
2023/09/16 05:36:23;;;;;;;79.35;73.97;;;;;;;11.07;80.71;101186.54;1791252;80;25749;-47
2023/09/16 05:38:50;;;;;;;77.32;72.15;;;;;;;11.20;80.67;101182.30;1791531;80;25672;-47
2023/09/16 05:41:16;;;;;;;78.47;72.97;;;;;;;11.32;80.82;101183.22;1791255;80;25618;-47
2023/09/16 05:43:43;;;;;;;79.70;74.42;;;;;;;11.47;80.89;101187.07;1791326;80;25536;-47
2023/09/16 05:46:09;;;;;;;78.70;73.50;;;;;;;11.61;80.80;101187.14;1791358;80;27623;-47
2023/09/16 05:48:35;;;;;;;77.30;72.17;;;;;;;11.74;80.77;101185.05;1791226;80;25772;-48
2023/09/16 05:51:02;;;;;;;79.55;74.25;;;;;;;11.88;80.62;101187.01;1791293;80;25544;-49
2023/09/16 05:53:32;;;;;;;77.45;72.45;;;;;;;12.05;80.68;101186.49;1791298;80;25546;-48
2023/09/16 05:56:04;;;;;;;77.08;72.12;;;;;;;12.23;80.52;101190.27;1791315;80;25410;-47
2023/09/16 05:58:31;;;;;;;81.60;76.00;;;;;;;12.40;80.29;101197.28;1791350;79;27545;-46
2023/09/16 06:00:57;;;;;;;78.30;73.20;;;;;;;12.59;80.13;101195.05;1791206;80;25417;-47
2023/09/16 06:03:24;;;;;;;75.92;71.05;;;;;;;12.74;79.88;101192.03;1791266;80;25625;-48
2023/09/16 06:06:01;;;;;;;78.30;72.87;;;;;;;12.91;79.71;101196.06;1791240;80;25574;-48
2023/09/16 06:08:27;;;;;;;75.62;70.72;;;;;;;13.10;79.73;101191.88;1791323;80;25378;-47
2023/09/16 06:10:55;;;;;;;81.95;76.65;;;;;;;13.30;78.95;101186.00;1791269;80;27546;-46
2023/09/16 06:13:22;;;;;;;77.10;72.20;;;;;;;13.49;78.62;101199.46;1790936;80;25641;-49
2023/09/16 06:15:49;;;;;;;74.77;69.97;;;;;;;13.68;78.35;101197.14;1791292;80;25366;-49
2023/09/16 06:18:15;;;;;;;76.33;71.17;;;;;;;13.86;77.57;101200.78;1791220;80;26049;-49
2023/09/16 06:20:42;;;;;;;76.57;71.67;;;;;;;14.01;77.10;101190.36;1791335;80;25450;-48
2023/09/16 06:23:09;;;;;;;74.92;69.90;;;;;;;14.22;77.14;101197.17;1791299;80;27457;-48
2023/09/16 06:25:35;;;;;;;76.15;71.33;;;;;;;14.45;77.28;101196.59;1791154;80;25757;-49
2023/09/16 06:28:03;;;;;;;75.52;70.57;;;;;;;14.67;76.53;101199.27;1791258;80;25402;-48
2023/09/16 06:30:31;;;;;;;74.90;70.10;;;;;;;14.86;75.61;101197.65;1791219;80;25560;-47
2023/09/16 06:32:57;;;;;;;75.25;70.32;;;;;;;15.09;75.75;101201.09;1795376;79;25566;-47
2023/09/16 06:35:24;;;;;;;77.15;72.08;;;;;;;15.30;74.85;101190.38;1797167;79;28061;-48
2023/09/16 06:37:50;;;;;;;74.53;69.67;;;;;;;15.52;74.36;101194.66;1796872;79;25591;-47
2023/09/16 06:40:17;;;;;;;74.27;69.55;;;;;;;15.75;73.50;101198.86;1796672;79;25466;-48
2023/09/16 06:42:44;;;;;;;75.45;70.65;;;;;;;15.96;73.81;101196.27;1797102;79;27680;-49
2023/09/16 06:45:12;;;;;;;73.75;69.25;;;;;;;16.23;72.86;101194.29;1797194;79;25639;-49
2023/09/16 06:47:39;;;;;;;74.85;70.15;;;;;;;16.42;71.15;101196.06;1797154;79;27453;-48
2023/09/16 06:50:12;;;;;;;73.80;69.22;;;;;;;16.59;71.11;101191.67;1797039;79;25679;-48
2023/09/16 06:52:39;;;;;;;73.33;68.57;;;;;;;16.83;70.82;101196.54;1797205;79;25388;-49
2023/09/16 06:55:05;;;;;;;73.85;69.25;;;;;;;17.02;69.86;101192.62;1797128;79;25625;-49
2023/09/16 06:57:33;;;;;;;74.37;69.92;;;;;;;17.20;68.93;101199.58;1797177;79;25661;-49
2023/09/16 06:59:59;;;;;;;72.00;67.70;;;;;;;17.42;69.46;101195.72;1797161;79;27468;-50
2023/09/16 07:02:26;;;;;;;72.30;67.85;;;;;;;17.62;67.93;101197.41;1797071;79;25565;-49
2023/09/16 07:04:55;;;;;;;71.72;67.22;;;;;;;17.80;67.05;101198.07;1797120;79;25427;-49
2023/09/16 07:07:23;;;;;;;73.62;69.32;;;;;;;17.94;66.87;101191.75;1796982;79;25519;-48
2023/09/16 07:09:48;;;;;;;72.20;67.97;;;;;;;18.14;66.70;101198.90;1796887;79;25562;-49
2023/09/16 07:12:14;;;;;;;71.92;67.32;;;;;;;18.35;66.88;101201.56;1797110;79;27464;-48
2023/09/16 07:14:40;;;;;;;72.82;68.52;;;;;;;18.55;65.67;101197.94;1797051;79;25443;-47
2023/09/16 07:17:07;;;;;;;73.33;68.83;;;;;;;18.82;65.46;101201.15;1797154;79;25449;-48
2023/09/16 07:19:34;;;;;;;72.15;67.80;;;;;;;18.99;64.08;101193.29;1797087;79;25565;-48
2023/09/16 07:22:01;;;;;;;72.08;67.55;;;;;;;19.13;63.28;101195.67;1797134;79;25599;-51
2023/09/16 07:24:29;;;;;;;70.72;66.45;;;;;;;19.23;61.51;101196.56;1797223;79;27677;-49
2023/09/16 07:26:55;;;;;;;70.67;66.57;;;;;;;19.31;62.15;101194.84;1797048;79;25792;-47
2023/09/16 07:29:22;;;;;;;69.40;65.22;;;;;;;19.52;62.00;101187.80;1797125;79;25443;-49
2023/09/16 07:31:49;;;;;;;70.75;66.47;;;;;;;19.72;62.04;101188.19;1793388;78;25604;-58
2023/09/16 07:34:19;;;;;;;70.52;66.22;;;;;;;19.99;60.38;101188.55;1761388;81;25404;-56
2023/09/16 07:36:46;;;;;;;71.80;67.37;;;;;;;20.18;59.96;101196.70;1734248;81;27505;-53
2023/09/16 07:39:13;;;;;;;70.95;66.65;;;;;;;20.45;59.65;101204.62;1761228;81;25549;-54
2023/09/16 07:41:41;;;;;;;71.80;67.80;;;;;;;20.66;58.70;101191.45;1761307;81;25567;-52
2023/09/16 07:44:08;;;;;;;8.63;7.75;;;;;;;20.84;57.72;101191.06;1761484;81;25622;-54
2023/09/16 07:46:35;;;;;;;8.10;7.37;;;;;;;21.14;57.47;101191.95;1761487;81;25597;-56
2023/09/16 07:49:02;;;;;;;7.87;3.02;;;;;;;21.43;56.38;101199.64;1761424;81;27514;-54
2023/09/16 07:51:29;;;;;;;3.90;2.70;;;;;;;21.73;55.39;101204.61;1761316;81;27291;-56
2023/09/16 07:53:55;;;;;;;4.53;2.72;;;;;;;21.86;54.75;101201.11;1761464;81;25402;-51
2023/09/16 07:56:22;;;;;;;4.12;2.45;;;;;;;22.15;54.12;101199.70;1761434;81;25509;-56
2023/09/16 07:58:48;;;;;;;3.02;2.37;;;;;;;22.24;52.46;101192.58;1761505;81;25378;-52
2023/09/16 08:01:15;;;;;;;69.32;65.28;;;;;;;22.51;51.81;101188.53;1761464;81;28203;-51
2023/09/16 08:03:42;;;;;;;10.48;5.17;;;;;;;22.49;50.74;101188.09;1761367;81;25442;-54
2023/09/16 08:06:10;;;;;;;2.62;2.40;;;;;;;22.73;52.18;101193.22;1761452;81;25462;-50
2023/09/16 08:08:36;;;;;;;5.33;2.60;;;;;;;23.23;51.27;101187.64;1761421;81;25529;-52
2023/09/16 08:11:02;;;;;;;4.12;2.77;;;;;;;23.47;50.09;101188.34;1761451;81;25560;-50
2023/09/16 08:13:28;;;;;;;5.47;2.90;;;;;;;23.60;49.31;101195.78;1761447;81;27339;-50
2023/09/16 08:15:56;;;;;;;4.12;3.05;;;;;;;23.75;46.05;101187.89;1761446;81;25768;-49
2023/09/16 08:18:22;;;;;;;4.25;2.58;;;;;;;23.58;47.70;101192.60;1761559;81;25625;-52
2023/09/16 08:34:29;;;;;;;4.95;3.15;;;;;;;24.58;44.40;101190.88;1839519;77;25303;-53
2023/09/16 08:36:55;;;;;;;6.17;2.40;;;;;;;24.53;44.09;101193.18;1814713;79;25539;-52
2023/09/16 08:39:21;;;;;;;4.90;2.77;;;;;;;24.63;45.86;101186.18;1814702;79;27437;-51
2023/09/16 08:42:10;;;;;;;2.80;2.60;;;;;;;24.63;45.02;101186.97;1814602;78;25421;-50
2023/09/16 08:44:41;;;;;;;3.33;2.42;;;;;;;24.71;44.37;101173.40;1814864;79;25575;-47
2023/09/16 08:47:13;;;;;;;3.17;2.60;;;;;;;24.94;44.53;101170.96;1814712;79;25573;-47
2023/09/16 08:49:44;;;;;;;6.87;3.58;;;;;;;25.25;44.79;101175.09;1814531;79;25619;-54
2023/09/16 08:52:14;;;;;;;4.62;2.60;;;;;;;25.40;44.51;101167.66;1814354;79;27493;-55
2023/09/16 08:54:45;;;;;;;4.80;3.20;;;;;;;25.72;44.16;101165.59;1814682;79;26967;-54
2023/09/16 08:57:13;;;;;;;6.55;2.83;;;;;;;26.21;43.90;101173.80;1814724;79;25609;-52
2023/09/16 08:59:41;;;;;;;4.12;2.80;;;;;;;26.47;42.83;101171.82;1814615;79;25431;-52
2023/09/16 09:02:09;;;;;;;5.23;3.03;;;;;;;26.70;42.35;101164.50;1814897;79;25412;-60
2023/09/16 09:04:39;;;;;;;2.80;2.58;;;;;;;26.81;41.19;101165.26;1814766;79;27486;-51
2023/09/16 09:07:07;;;;;;;4.50;2.60;;;;;;;26.86;40.75;101158.52;1814482;79;27335;-55
2023/09/16 09:09:33;;;;;;;4.70;2.70;;;;;;;26.80;40.95;101157.33;1814600;79;25609;-56
2023/09/16 09:12:04;;;;;;;4.25;2.27;;;;;;;26.80;41.65;101150.39;1747759;82;27300;-56
2023/09/16 09:14:33;;;;;;;4.58;2.80;;;;;;;27.01;41.73;101153.12;1747877;81;25556;-53
2023/09/16 09:17:00;;;;;;;;;;;;;;;27.23;41.04;101150.88;1750436;82;27484;-55
2023/09/16 09:19:28;;;;;;;3.35;2.52;;;;;;;27.36;40.01;101158.96;1747904;81;25555;-56
2023/09/16 09:21:58;;;;;;;2.90;2.67;;;;;;;27.44;40.09;101148.63;1778681;80;25497;-57
2023/09/16 09:24:24;;;;;;;3.83;2.72;;;;;;;27.51;38.73;101152.14;1747920;82;25564;-56
2023/09/16 09:26:50;;;;;;;2.90;2.50;;;;;;;27.18;38.65;101145.92;1778817;80;25591;-57
2023/09/16 09:29:16;;;;;;;4.65;2.83;;;;;;;27.07;39.74;101149.92;1748052;82;28063;-52
2023/09/16 09:31:45;;;;;;;3.00;2.52;;;;;;;27.25;39.68;101154.04;1778774;80;25519;-57
2023/09/16 09:34:18;;;;;;;4.17;2.50;;;;;;;27.49;40.26;101150.97;1741838;81;25542;-55
2023/09/16 09:36:47;;;;;;;2.72;2.40;;;;;;;27.75;39.06;101149.05;1739428;82;25588;-53
2023/09/16 09:39:14;;;;;;;3.15;2.70;;;;;;;27.98;38.63;101165.79;1718625;82;25410;-57
2023/09/16 09:41:49;;;;;;;3.87;2.47;;;;;;;28.05;38.23;101153.83;1739358;82;26913;-55
2023/09/16 09:44:16;;;;;;;6.03;2.80;;;;;;;28.11;37.87;101146.61;1739189;82;25566;-55
2023/09/16 09:46:43;;;;;;;3.52;2.35;;;;;;;27.83;37.09;101146.99;1740254;82;25421;-56
2023/09/16 09:49:13;;;;;;;4.17;2.72;;;;;;;27.92;37.71;101143.20;1719843;81;25511;-55
2023/09/16 09:51:42;;;;;;;7.83;2.50;;;;;;;28.21;37.80;101140.78;1741578;82;25421;-56
2023/09/16 09:54:10;;;;;;;3.90;2.55;;;;;;;28.52;37.77;101144.49;1741346;82;27505;-56
2023/09/16 09:56:37;;;;;;;3.45;2.40;;;;;;;28.67;37.16;101130.65;1741099;82;25700;-56
2023/09/16 09:59:05;;;;;;;3.37;2.75;;;;;;;28.86;35.81;101131.22;1740457;82;25634;-56
2023/09/16 10:01:33;;;;;;;4.35;2.60;;;;;;;28.44;35.65;101124.28;1741489;82;25554;-55
2023/09/16 10:04:02;;;;;;;4.37;2.72;;;;;;;28.27;35.89;101114.90;1740912;82;25612;-54
2023/09/16 10:06:32;;;;;;;9.35;8.10;;;;;;;28.18;36.32;101116.56;1741482;82;28203;-51
2023/09/16 10:08:58;;;;;;;6.95;3.30;;;;;;;28.07;36.55;101117.45;1810608;79;25689;-55
2023/09/16 10:11:29;;;;;;;4.70;2.90;;;;;;;28.03;35.98;101106.97;1810823;79;25361;-61
2023/09/16 10:13:56;;;;;;;3.15;2.67;;;;;;;27.81;36.27;101113.88;1788267;79;25465;-62
2023/09/16 10:16:22;;;;;;;3.35;2.83;;;;;;;27.69;37.29;101099.25;1810926;79;25466;-54
2023/09/16 10:18:51;;;;;;;3.40;2.42;;;;;;;27.91;37.63;101107.44;1720201;82;28119;-56
2023/09/16 10:21:19;;;;;;;5.70;2.80;;;;;;;28.19;38.00;101106.42;1810429;79;25196;-55
2023/09/16 10:23:47;;;;;;;5.30;3.00;;;;;;;28.43;37.13;101103.21;1810854;79;25547;-57
2023/09/16 10:26:13;;;;;;;4.55;2.80;;;;;;;28.39;37.09;101102.47;1810925;79;25625;-56
2023/09/16 10:28:47;;;;;;;5.70;2.77;;;;;;;28.39;36.41;101099.69;1810869;79;25616;-56
2023/09/16 10:55:00;;;;;;;2.92;2.62;;;;;;;29.78;34.36;101071.33;1850625;77;26296;-53
2023/09/16 10:57:33;;;;;;;;;;;;;;;29.82;34.56;101067.70;1758036;81;25433;-56
2023/09/16 11:00:03;;;;;;;5.20;2.58;;;;;;;29.79;33.68;101061.73;1786147;80;27514;-56
2023/09/16 11:02:59;;;;;;;3.05;2.60;;;;;;;29.57;32.98;101061.26;1754357;81;25652;-58
2023/09/16 11:05:27;;;;;;;4.53;2.77;;;;;;;29.59;33.57;101062.23;1785977;80;25965;-55
2023/09/16 11:07:56;;;;;;;5.47;2.62;;;;;;;29.92;34.05;101052.79;1755295;81;25606;-54
2023/09/16 11:10:24;;;;;;;3.37;2.52;;;;;;;30.17;33.47;101055.92;1754664;81;25411;-53
2023/09/16 11:12:52;;;;;;;4.90;2.85;;;;;;;30.30;33.28;101051.11;1755453;81;28774;-56
2023/09/16 11:15:19;;;;;;;2.92;2.22;;;;;;;30.33;33.14;101046.08;1755462;81;25553;-56
2023/09/16 11:17:45;;;;;;;3.33;2.92;;;;;;;30.25;32.91;101045.41;1755334;81;25154;-55
2023/09/16 11:20:30;;;;;;;3.42;2.50;;;;;;;30.04;31.55;101041.63;1755282;81;25405;-53
2023/09/16 11:22:54;;;;;;;6.65;2.80;;;;;;;29.57;32.50;101038.96;1754792;81;25455;-49
2023/09/16 11:25:21;;;;;;;2.62;2.17;;;;;;;29.43;33.05;101034.41;1755287;81;27516;-48
2023/09/16 11:27:50;;;;;;;2.75;2.17;;;;;;;29.62;33.17;101034.91;1755177;81;25573;-56
2023/09/16 11:30:17;;;;;;;6.55;3.00;;;;;;;29.80;32.61;101032.66;1755392;81;25448;-57
2023/09/16 11:33:01;;;;;;;2.52;2.33;;;;;;;29.92;32.05;101037.45;1755259;81;25209;-63
2023/09/16 11:35:29;;;;;;;3.08;2.30;;;;;;;29.62;31.45;101032.12;1754799;81;25475;-59
2023/09/16 11:37:58;;;;;;;3.15;2.40;;;;;;;29.40;32.54;101033.84;1755448;81;28077;-58
2023/09/16 11:40:31;;;;;;;4.58;2.12;;;;;;;29.37;31.77;101024.16;1755364;81;25625;-56
2023/09/16 11:43:00;;;;;;;6.90;2.45;;;;;;;29.24;31.83;101021.95;1755410;81;25475;-56
2023/09/16 11:45:28;;;;;;;4.12;2.25;;;;;;;29.12;31.45;101022.51;1755418;81;25500;-58
2023/09/16 11:47:55;;;;;;;5.97;2.30;;;;;;;28.91;31.83;101013.05;1755317;81;25585;-60
2023/09/16 11:50:27;;;;;;;3.83;2.47;;;;;;;28.84;32.38;101009.17;1755295;81;27603;-57
2023/09/16 11:52:54;;;;;;;3.15;2.55;;;;;;;28.85;31.60;101009.95;1752508;81;25701;-55
2023/09/16 11:55:21;;;;;;;3.87;2.50;;;;;;;28.58;31.07;101010.67;1741792;82;25721;-58
2023/09/16 11:57:49;;;;;;;2.85;2.20;;;;;;;28.40;32.23;100994.18;1811226;79;25810;-56
2023/09/16 12:00:16;;;;;;;2.55;2.22;;;;;;;28.56;31.90;100985.87;1811522;79;25453;-53